createdAt,value
2018-06-22T00:00:36.851Z,11.71
2018-06-22T00:01:46.561Z,11.7
2018-06-22T00:02:56.524Z,11.6
2018-06-22T00:04:06.540Z,11.62
2018-06-22T00:05:16.240Z,11.55
2018-06-22T00:06:25.957Z,11.6
2018-06-22T00:07:35.921Z,11.68
2018-06-22T00:08:45.627Z,11.59
2018-06-22T00:09:55.594Z,11.6
2018-06-22T00:11:05.307Z,11.67
2018-06-22T00:12:15.277Z,11.6
2018-06-22T00:13:25.250Z,11.63
2018-06-22T00:14:35.009Z,11.53
2018-06-22T00:15:44.720Z,11.55
2018-06-22T00:16:54.700Z,11.59
2018-06-22T00:18:04.705Z,11.51
2018-06-22T00:19:14.668Z,11.58
2018-06-22T00:20:24.641Z,11.59
2018-06-22T00:21:34.611Z,11.59
2018-06-22T00:22:44.315Z,11.53
2018-06-22T00:23:54.292Z,11.56
2018-06-22T00:25:03.997Z,11.51
2018-06-22T00:26:13.954Z,11.49
2018-06-22T00:27:23.920Z,11.48
2018-06-22T00:28:33.401Z,11.53
2018-06-22T00:29:43.103Z,11.45
2018-06-22T00:30:53.065Z,11.49
2018-06-22T00:32:03.030Z,11.45
2018-06-22T00:33:13.008Z,11.49
2018-06-22T00:34:22.974Z,11.49
2018-06-22T00:35:32.932Z,11.49
2018-06-22T00:36:42.393Z,11.51
2018-06-22T00:37:52.352Z,11.59
2018-06-22T00:39:02.317Z,11.48
2018-06-22T00:40:12.284Z,11.53
2018-06-22T00:41:22.243Z,11.56
2018-06-22T00:42:32.201Z,11.6
2018-06-22T00:43:42.164Z,11.52
2018-06-22T00:44:52.121Z,11.58
2018-06-22T00:46:02.075Z,11.6
2018-06-22T00:47:12.044Z,11.58
2018-06-22T00:48:21.758Z,11.52
2018-06-22T00:49:31.454Z,11.52
2018-06-22T00:50:41.415Z,11.48
2018-06-22T00:51:51.393Z,11.4
2018-06-22T00:53:01.343Z,11.41
2018-06-22T00:54:11.318Z,11.37
2018-06-22T00:55:21.278Z,11.43
2018-06-22T00:56:30.973Z,11.31
2018-06-22T00:57:40.682Z,11.31
2018-06-22T00:58:50.640Z,11.27
2018-06-22T01:00:00.342Z,11.2
2018-06-22T01:01:10.302Z,11.26
2018-06-22T01:02:20.289Z,11.19
2018-06-22T01:03:29.729Z,11.16
2018-06-22T01:04:39.484Z,11.15
2018-06-22T01:05:48.933Z,11.19
2018-06-22T01:06:58.901Z,11.1
2018-06-22T01:08:08.852Z,11.12
2018-06-22T01:09:18.556Z,11.05
2018-06-22T01:10:28.255Z,11.02
2018-06-22T01:11:37.960Z,11.07
2018-06-22T01:12:47.926Z,10.98
2018-06-22T01:13:57.688Z,11.12
2018-06-22T01:15:07.451Z,11
2018-06-22T01:16:17.434Z,11.01
2018-06-22T01:17:27.465Z,11.05
2018-06-22T01:18:37.493Z,10.98
2018-06-22T01:19:46.978Z,11
2018-06-22T01:20:56.976Z,11
2018-06-22T01:22:07.015Z,11.01
2018-06-22T01:23:16.849Z,10.98
2018-06-22T01:24:26.572Z,10.87
2018-06-22T01:25:36.272Z,10.92
2018-06-22T01:26:46.232Z,10.95
2018-06-22T01:27:56.192Z,10.97
2018-06-22T01:29:05.645Z,10.94
2018-06-22T01:30:15.611Z,10.92
2018-06-22T01:31:25.574Z,10.97
2018-06-22T01:32:35.529Z,10.86
2018-06-22T01:33:45.237Z,10.9
2018-06-22T01:34:55.197Z,10.95
2018-06-22T01:36:05.155Z,10.92
2018-06-22T01:37:15.134Z,10.9
2018-06-22T01:38:24.840Z,10.86
2018-06-22T01:39:34.799Z,10.9
2018-06-22T01:40:44.497Z,10.86
2018-06-22T01:41:54.203Z,10.84
2018-06-22T01:43:04.179Z,10.86
2018-06-22T01:44:13.885Z,10.84
2018-06-22T01:45:23.586Z,10.83
2018-06-22T01:46:33.547Z,10.86
2018-06-22T01:47:43.506Z,10.76
2018-06-22T01:48:53.471Z,10.71
2018-06-22T01:50:03.437Z,10.72
2018-06-22T01:51:13.394Z,10.77
2018-06-22T01:52:23.353Z,10.82
2018-06-22T01:53:33.312Z,10.8
2018-06-22T01:54:43.019Z,10.75
2018-06-22T01:55:52.988Z,10.75
2018-06-22T01:57:02.944Z,10.72
2018-06-22T01:58:12.901Z,10.77
2018-06-22T01:59:22.597Z,10.75
2018-06-22T02:00:32.355Z,10.76
2018-06-22T02:01:42.315Z,10.79
2018-06-22T02:02:52.275Z,10.82
2018-06-22T02:04:02.242Z,10.82
2018-06-22T02:05:12.212Z,10.68
2018-06-22T02:06:22.180Z,10.71
2018-06-22T02:07:31.885Z,10.69
2018-06-22T02:08:41.377Z,10.71
2018-06-22T02:09:51.091Z,10.67
2018-06-22T02:11:01.064Z,10.65
2018-06-22T02:12:11.014Z,10.68
2018-06-22T02:13:20.707Z,10.68
2018-06-22T02:14:30.899Z,10.67
2018-06-22T02:15:40.865Z,10.69
2018-06-22T02:16:50.839Z,10.72
2018-06-22T02:18:00.823Z,10.64
2018-06-22T02:19:10.537Z,10.69
2018-06-22T02:20:20.515Z,10.59
2018-06-22T02:21:30.479Z,10.55
2018-06-22T02:22:40.448Z,10.67
2018-06-22T02:23:50.163Z,10.59
2018-06-22T02:25:00.125Z,10.59
2018-06-22T02:26:10.092Z,10.51
2018-06-22T02:27:19.846Z,10.64
2018-06-22T02:28:29.564Z,10.59
2018-06-22T02:29:39.524Z,10.64
2018-06-22T02:30:49.482Z,10.62
2018-06-22T02:31:59.190Z,10.61
2018-06-22T02:33:08.901Z,10.59
2018-06-22T02:34:18.864Z,10.59
2018-06-22T02:35:28.830Z,10.62
2018-06-22T02:36:38.817Z,10.67
2018-06-22T02:37:48.776Z,10.68
2018-06-22T02:38:58.758Z,10.65
2018-06-22T02:40:08.726Z,10.65
2018-06-22T02:41:18.705Z,10.62
2018-06-22T02:42:28.407Z,10.69
2018-06-22T02:43:38.370Z,10.76
2018-06-22T02:44:48.077Z,10.65
2018-06-22T02:45:58.043Z,10.77
2018-06-22T02:47:07.750Z,10.82
2018-06-22T02:48:17.707Z,10.72
2018-06-22T02:49:27.412Z,10.71
2018-06-22T02:50:37.381Z,10.77
2018-06-22T02:51:47.351Z,10.82
2018-06-22T02:52:57.322Z,10.76
2018-06-22T02:54:06.769Z,10.82
2018-06-22T02:55:16.484Z,10.82
2018-06-22T02:56:26.465Z,10.8
2018-06-22T02:57:36.172Z,10.84
2018-06-22T02:58:45.391Z,10.87
2018-06-22T02:59:55.493Z,10.84
2018-06-22T03:01:05.273Z,10.87
2018-06-22T03:02:15.247Z,10.87
2018-06-22T03:03:25.222Z,10.84
2018-06-22T03:04:34.698Z,10.83
2018-06-22T03:05:44.663Z,10.89
2018-06-22T03:06:54.626Z,10.9
2018-06-22T03:08:04.599Z,10.87
2018-06-22T03:09:14.573Z,10.83
2018-06-22T03:10:24.542Z,10.9
2018-06-22T03:11:34.599Z,10.87
2018-06-22T03:12:44.565Z,10.84
2018-06-22T03:13:54.517Z,10.89
2018-06-22T03:15:04.508Z,10.89
2018-06-22T03:16:14.478Z,10.9
2018-06-22T03:17:24.445Z,10.9
2018-06-22T03:18:34.437Z,10.94
2018-06-22T03:19:44.144Z,10.84
2018-06-22T03:20:54.108Z,10.94
2018-06-22T03:22:04.077Z,10.9
2018-06-22T03:23:14.036Z,11
2018-06-22T03:24:24.007Z,10.9
2018-06-22T03:25:34.008Z,10.98
2018-06-22T03:26:43.978Z,10.95
2018-06-22T03:27:53.947Z,10.9
2018-06-22T03:29:03.645Z,10.95
2018-06-22T03:30:13.610Z,10.98
2018-06-22T03:31:23.589Z,10.9
2018-06-22T03:32:33.554Z,10.9
2018-06-22T03:33:43.264Z,10.92
2018-06-22T03:34:53.236Z,10.97
2018-06-22T03:36:02.937Z,10.94
2018-06-22T03:37:12.913Z,10.98
2018-06-22T03:38:22.362Z,10.94
2018-06-22T03:39:32.459Z,11.01
2018-06-22T03:40:42.776Z,10.95
2018-06-22T03:41:52.743Z,10.98
2018-06-22T03:43:02.468Z,10.89
2018-06-22T03:44:11.921Z,10.95
2018-06-22T03:45:21.631Z,10.92
2018-06-22T03:46:31.336Z,10.94
2018-06-22T03:47:41.302Z,10.95
2018-06-22T03:48:51.034Z,11.01
2018-06-22T03:50:00.991Z,10.98
2018-06-22T03:51:10.703Z,11.05
2018-06-22T03:52:20.662Z,11
2018-06-22T03:53:30.358Z,11.07
2018-06-22T03:54:40.314Z,11.07
2018-06-22T03:55:50.272Z,11.02
2018-06-22T03:57:00.235Z,10.98
2018-06-22T03:58:10.197Z,11.1
2018-06-22T03:59:20.145Z,11
2018-06-22T04:00:30.113Z,11.07
2018-06-22T04:01:39.812Z,11.05
2018-06-22T04:02:49.516Z,10.97
2018-06-22T04:03:59.473Z,11.05
2018-06-22T04:05:09.435Z,11.08
2018-06-22T04:06:19.397Z,11.04
2018-06-22T04:07:29.370Z,10.98
2018-06-22T04:08:39.080Z,10.94
2018-06-22T04:09:49.054Z,11.07
2018-06-22T04:10:59.021Z,11.02
2018-06-22T04:12:08.973Z,11.1
2018-06-22T04:13:18.687Z,11.1
2018-06-22T04:14:28.389Z,11.08
2018-06-22T04:15:37.846Z,11.15
2018-06-22T04:16:47.804Z,11.13
2018-06-22T04:17:57.760Z,11.13
2018-06-22T04:19:07.462Z,11.19
2018-06-22T04:20:17.430Z,11.2
2018-06-22T04:21:27.125Z,11.23
2018-06-22T04:22:37.095Z,11.22
2018-06-22T04:23:47.060Z,11.33
2018-06-22T04:24:57.019Z,11.3
2018-06-22T04:26:06.733Z,11.3
2018-06-22T04:27:17.004Z,11.3
2018-06-22T04:28:26.969Z,11.23
2018-06-22T04:29:36.941Z,11.26
2018-06-22T04:30:46.925Z,11.23
2018-06-22T04:31:56.895Z,11.3
2018-06-22T04:33:06.891Z,11.27
2018-06-22T04:34:16.879Z,11.23
2018-06-22T04:35:26.852Z,11.38
2018-06-22T04:36:36.832Z,11.43
2018-06-22T04:37:46.537Z,11.38
2018-06-22T04:38:56.510Z,11.35
2018-06-22T04:40:06.493Z,11.34
2018-06-22T04:41:15.934Z,11.45
2018-06-22T04:42:25.892Z,11.45
2018-06-22T04:43:35.599Z,11.44
2018-06-22T04:44:45.305Z,11.44
2018-06-22T04:45:55.265Z,11.43
2018-06-22T04:47:04.710Z,11.45
2018-06-22T04:48:14.163Z,11.52
2018-06-22T04:49:23.605Z,11.53
2018-06-22T04:50:33.577Z,11.53
2018-06-22T04:51:43.283Z,11.62
2018-06-22T04:52:53.244Z,11.59
2018-06-22T04:54:03.224Z,11.6
2018-06-22T04:55:12.929Z,11.68
2018-06-22T04:56:23.112Z,11.67
2018-06-22T04:57:33.091Z,11.62
2018-06-22T04:58:42.808Z,11.6
2018-06-22T04:59:52.267Z,11.68
2018-06-22T05:01:02.241Z,11.68
2018-06-22T05:02:11.988Z,11.8
2018-06-22T05:03:21.948Z,11.7
2018-06-22T05:04:31.425Z,11.62
2018-06-22T05:05:41.132Z,11.6
2018-06-22T05:06:51.094Z,11.63
2018-06-22T05:08:01.070Z,11.67
2018-06-22T05:09:11.027Z,11.62
2018-06-22T05:10:21.073Z,11.63
2018-06-22T05:11:30.776Z,11.63
2018-06-22T05:12:40.743Z,11.71
2018-06-22T05:13:50.460Z,11.71
2018-06-22T05:14:59.963Z,11.63
2018-06-22T05:16:09.426Z,11.67
2018-06-22T05:17:19.419Z,11.6
2018-06-22T05:18:29.382Z,11.63
2018-06-22T05:19:39.354Z,11.6
2018-06-22T05:20:49.079Z,11.56
2018-06-22T05:21:59.036Z,11.63
2018-06-22T05:23:08.486Z,11.63
2018-06-22T05:24:18.505Z,11.58
2018-06-22T05:25:27.952Z,11.65
2018-06-22T05:26:37.932Z,11.7
2018-06-22T05:27:47.899Z,11.63
2018-06-22T05:28:57.865Z,11.62
2018-06-22T05:30:07.581Z,11.52
2018-06-22T05:31:17.550Z,11.35
2018-06-22T05:32:27.317Z,11.2
2018-06-22T05:33:37.019Z,11.22
2018-06-22T05:34:46.728Z,11.12
2018-06-22T05:35:56.651Z,11.16
2018-06-22T05:37:06.727Z,11.22
2018-06-22T05:38:16.685Z,11.27
2018-06-22T05:39:26.660Z,11.31
2018-06-22T05:40:36.645Z,11.37
2018-06-22T05:41:46.615Z,11.35
2018-06-22T05:42:56.609Z,11.49
2018-06-22T05:44:06.309Z,11.6
2018-06-22T05:45:15.778Z,11.76
2018-06-22T05:46:25.486Z,11.62
2018-06-22T05:47:35.461Z,11.78
2018-06-22T05:48:45.463Z,11.85
2018-06-22T05:49:55.441Z,11.93
2018-06-22T05:51:05.175Z,11.91
2018-06-22T05:52:15.162Z,11.93
2018-06-22T05:53:25.178Z,11.96
2018-06-22T05:54:35.175Z,11.93
2018-06-22T05:55:44.888Z,11.95
2018-06-22T05:56:55.150Z,11.97
2018-06-22T05:58:05.130Z,12
2018-06-22T05:59:15.186Z,12.11
2018-06-22T06:00:25.229Z,12.14
2018-06-22T06:01:35.004Z,12.28
2018-06-22T06:02:44.712Z,12.23
2018-06-22T06:03:54.700Z,12.21
2018-06-22T06:05:04.415Z,12.3
2018-06-22T06:06:14.391Z,12.28
2018-06-22T06:07:24.110Z,12.25
2018-06-22T06:08:34.082Z,12.28
2018-06-22T06:09:43.805Z,12.2
2018-06-22T06:10:53.784Z,12.23
2018-06-22T06:12:03.750Z,12.18
2018-06-22T06:13:13.465Z,12.25
2018-06-22T06:14:23.425Z,12.18
2018-06-22T06:15:33.161Z,12.28
2018-06-22T06:16:43.126Z,12.14
2018-06-22T06:17:52.580Z,12.28
2018-06-22T06:19:02.598Z,12.21
2018-06-22T06:20:12.847Z,12.23
2018-06-22T06:21:22.828Z,12.28
2018-06-22T06:22:32.808Z,12.23
2018-06-22T06:23:42.786Z,12.21
2018-06-22T06:24:52.745Z,12.36
2018-06-22T06:26:02.725Z,12.35
2018-06-22T06:27:12.764Z,12.4
2018-06-22T06:28:22.541Z,12.39
2018-06-22T06:29:31.992Z,12.4
2018-06-22T06:30:41.730Z,12.28
2018-06-22T06:31:51.929Z,12.32
2018-06-22T06:33:01.632Z,12.33
2018-06-22T06:34:11.602Z,12.33
2018-06-22T06:35:21.702Z,12.29
2018-06-22T06:36:31.407Z,12.18
2018-06-22T06:37:41.386Z,12.15
2018-06-22T06:38:51.386Z,12.2
2018-06-22T06:40:01.392Z,12.15
2018-06-22T06:41:10.858Z,12.2
2018-06-22T06:42:20.580Z,12.29
2018-06-22T06:43:30.757Z,12.26
2018-06-22T06:44:40.749Z,12.37
2018-06-22T06:45:50.724Z,12.39
2018-06-22T06:47:00.730Z,12.4
2018-06-22T06:48:10.705Z,12.51
2018-06-22T06:49:20.673Z,12.62
2018-06-22T06:50:30.644Z,12.7
2018-06-22T06:51:40.624Z,12.62
2018-06-22T06:52:50.089Z,12.76
2018-06-22T06:53:59.279Z,12.76
2018-06-22T06:55:09.239Z,12.76
2018-06-22T06:56:18.962Z,12.72
2018-06-22T06:57:28.934Z,12.73
2018-06-22T06:58:38.902Z,12.65
2018-06-22T06:59:48.636Z,12.72
2018-06-22T07:00:58.626Z,12.8
2018-06-22T07:02:08.352Z,12.76
2018-06-22T07:03:18.322Z,12.78
2018-06-22T07:04:28.291Z,12.72
2018-06-22T07:05:38.265Z,12.78
2018-06-22T07:06:47.967Z,12.81
2018-06-22T07:07:57.918Z,12.86
2018-06-22T07:09:07.876Z,12.87
2018-06-22T07:10:17.862Z,12.86
2018-06-22T07:11:27.829Z,12.9
2018-06-22T07:12:37.797Z,12.76
2018-06-22T07:13:47.514Z,12.87
2018-06-22T07:14:57.226Z,12.93
2018-06-22T07:16:07.200Z,12.98
2018-06-22T07:17:17.047Z,12.86
2018-06-22T07:18:27.030Z,12.95
2018-06-22T07:19:36.505Z,13.09
2018-06-22T07:20:46.487Z,13.12
2018-06-22T07:21:55.942Z,13.09
2018-06-22T07:23:05.903Z,13.13
2018-06-22T07:24:15.608Z,13.11
2018-06-22T07:25:25.605Z,13.03
2018-06-22T07:26:35.594Z,12.99
2018-06-22T07:27:45.569Z,12.9
2018-06-22T07:28:55.280Z,12.75
2018-06-22T07:30:05.252Z,12.8
2018-06-22T07:31:14.965Z,12.53
2018-06-22T07:32:24.687Z,12.45
2018-06-22T07:33:34.646Z,12.43
2018-06-22T07:34:44.615Z,12.25
2018-06-22T07:35:54.396Z,12.28
2018-06-22T07:37:04.502Z,12.23
2018-06-22T07:38:13.973Z,12.21
2018-06-22T07:39:23.701Z,12.28
2018-06-22T07:40:33.417Z,12.33
2018-06-22T07:41:43.442Z,12.39
2018-06-22T07:42:53.415Z,12.5
2018-06-22T07:44:02.969Z,12.45
2018-06-22T07:45:13.170Z,12.62
2018-06-22T07:46:23.140Z,12.76
2018-06-22T07:47:32.872Z,12.9
2018-06-22T07:48:42.848Z,12.91
2018-06-22T07:49:52.878Z,12.94
2018-06-22T07:51:02.703Z,12.94
2018-06-22T07:52:12.683Z,13.09
2018-06-22T07:53:22.649Z,13.06
2018-06-22T07:54:32.639Z,13.23
2018-06-22T07:55:42.614Z,13.2
2018-06-22T07:56:52.336Z,13.12
2018-06-22T07:58:02.189Z,13.11
2018-06-22T07:59:12.153Z,13.03
2018-06-22T08:00:22.120Z,12.93
2018-06-22T08:01:31.567Z,12.91
2018-06-22T08:02:41.077Z,12.86
2018-06-22T08:03:51.072Z,12.91
2018-06-22T08:05:01.059Z,12.86
2018-06-22T08:06:11.114Z,12.76
2018-06-22T08:07:20.820Z,12.76
2018-06-22T08:08:30.813Z,12.8
2018-06-22T08:09:40.775Z,12.78
2018-06-22T08:10:50.547Z,12.73
2018-06-22T08:12:00.600Z,12.76
2018-06-22T08:13:10.626Z,12.87
2018-06-22T08:14:20.364Z,12.86
2018-06-22T08:15:30.338Z,12.93
2018-06-22T08:16:40.302Z,12.91
2018-06-22T08:17:50.220Z,12.99
2018-06-22T08:18:59.926Z,13.06
2018-06-22T08:20:09.895Z,13.06
2018-06-22T08:21:19.872Z,13.09
2018-06-22T08:22:29.827Z,13.08
2018-06-22T08:23:40.011Z,12.99
2018-06-22T08:24:49.632Z,13.06
2018-06-22T08:25:59.610Z,13.06
2018-06-22T08:27:09.357Z,13.13
2018-06-22T08:28:19.102Z,13.08
2018-06-22T08:29:28.813Z,13.11
2018-06-22T08:30:38.546Z,13.06
2018-06-22T08:31:48.267Z,13.08
2018-06-22T08:32:58.244Z,13.12
2018-06-22T08:34:08.233Z,13.3
2018-06-22T08:35:18.208Z,13.17
2018-06-22T08:36:27.943Z,13.31
2018-06-22T08:37:37.935Z,13.43
2018-06-22T08:38:47.659Z,13.37
2018-06-22T08:39:57.408Z,13.33
2018-06-22T08:41:07.384Z,13.43
2018-06-22T08:42:17.736Z,13.43
2018-06-22T08:43:27.822Z,13.45
2018-06-22T08:44:37.575Z,13.49
2018-06-22T08:45:47.555Z,13.45
2018-06-22T08:46:57.261Z,13.58
2018-06-22T08:48:07.239Z,13.55
2018-06-22T08:49:17.230Z,13.67
2018-06-22T08:50:27.197Z,13.67
2018-06-22T08:51:37.170Z,13.61
2018-06-22T08:52:47.136Z,13.67
2018-06-22T08:53:57.134Z,13.76
2018-06-22T08:55:06.845Z,13.7
2018-06-22T08:56:16.837Z,13.76
2018-06-22T08:57:26.611Z,13.75
2018-06-22T08:58:35.836Z,13.7
2018-06-22T08:59:45.811Z,13.82
2018-06-22T09:00:55.527Z,13.93
2018-06-22T09:02:05.501Z,13.91
2018-06-22T09:03:15.477Z,13.97
2018-06-22T09:04:25.472Z,14.07
2018-06-22T09:05:35.463Z,14.15
2018-06-22T09:06:45.476Z,14.23
2018-06-22T09:07:55.454Z,14.33
2018-06-22T09:09:05.455Z,14.3
2018-06-22T09:10:15.422Z,14.26
2018-06-22T09:11:25.419Z,14.4
2018-06-22T09:12:35.599Z,14.48
2018-06-22T09:13:45.934Z,14.33
2018-06-22T09:14:55.670Z,14.34
2018-06-22T09:16:05.379Z,14.45
2018-06-22T09:17:15.365Z,14.56
2018-06-22T09:18:25.340Z,14.61
2018-06-22T09:19:35.399Z,14.66
2018-06-22T09:20:45.506Z,14.63
2018-06-22T09:21:55.216Z,14.85
2018-06-22T09:23:04.943Z,14.81
2018-06-22T09:24:14.923Z,14.81
2018-06-22T09:25:24.758Z,14.79
2018-06-22T09:26:34.905Z,14.66
2018-06-22T09:27:44.882Z,14.61
2018-06-22T09:28:54.878Z,14.62
2018-06-22T09:30:04.886Z,14.62
2018-06-22T09:31:14.889Z,14.63
2018-06-22T09:32:24.984Z,14.86
2018-06-22T09:33:34.968Z,14.9
2018-06-22T09:34:44.933Z,15.11
2018-06-22T09:35:54.938Z,15.47
2018-06-22T09:37:04.916Z,15.63
2018-06-22T09:38:14.630Z,15.72
2018-06-22T09:39:24.628Z,15.73
2018-06-22T09:40:34.346Z,15.1
2018-06-22T09:41:44.073Z,13.97
2018-06-22T09:42:53.759Z,13.33
2018-06-22T09:44:03.990Z,12.93
2018-06-22T09:45:14.313Z,12.73
2018-06-22T09:46:24.042Z,12.53
2018-06-22T09:47:34.015Z,12.37
2018-06-22T09:48:43.987Z,12.32
2018-06-22T09:49:53.970Z,12.32
2018-06-22T09:51:03.971Z,12.21
2018-06-22T09:52:13.963Z,12.25
2018-06-22T09:53:23.442Z,12.28
2018-06-22T09:54:33.459Z,12.32
2018-06-22T09:55:43.483Z,12.48
2018-06-22T09:56:53.441Z,12.62
2018-06-22T09:58:03.164Z,12.75
2018-06-22T09:59:13.198Z,12.81
2018-06-22T10:00:23.159Z,12.87
2018-06-22T10:01:32.370Z,12.95
2018-06-22T10:02:42.087Z,12.88
2018-06-22T10:03:51.821Z,12.84
2018-06-22T10:05:01.895Z,12.73
2018-06-22T10:06:11.626Z,12.75
2018-06-22T10:07:21.819Z,12.76
2018-06-22T10:08:31.804Z,12.75
2018-06-22T10:09:41.561Z,12.58
2018-06-22T10:10:51.533Z,12.63
2018-06-22T10:12:01.019Z,12.51
2018-06-22T10:13:10.742Z,12.53
2018-06-22T10:14:20.762Z,12.54
2018-06-22T10:15:30.754Z,12.61
2018-06-22T10:16:40.476Z,12.78
2018-06-22T10:17:50.469Z,12.95
2018-06-22T10:19:00.463Z,12.94
2018-06-22T10:20:10.240Z,13.02
2018-06-22T10:21:20.409Z,13.08
2018-06-22T10:22:30.692Z,13.12
2018-06-22T10:23:40.690Z,13.21
2018-06-22T10:24:50.683Z,13.39
2018-06-22T10:26:00.658Z,13.58
2018-06-22T10:27:10.732Z,13.7
2018-06-22T10:28:20.852Z,13.91
2018-06-22T10:29:30.831Z,13.89
2018-06-22T10:30:40.823Z,13.83
2018-06-22T10:31:50.824Z,13.98
2018-06-22T10:33:00.542Z,14.2
2018-06-22T10:34:10.551Z,14.52
2018-06-22T10:35:20.549Z,14.55
2018-06-22T10:36:30.543Z,14.63
2018-06-22T10:37:40.288Z,14.93
2018-06-22T10:38:50.024Z,14.97
2018-06-22T10:40:00.001Z,15.15
2018-06-22T10:41:10.018Z,15.35
2018-06-22T10:42:19.493Z,15.29
2018-06-22T10:43:29.326Z,15.51
2018-06-22T10:44:39.040Z,15.65
2018-06-22T10:45:48.942Z,15.73
2018-06-22T10:46:58.682Z,15.98
2018-06-22T10:48:08.399Z,16.02
2018-06-22T10:49:18.372Z,16.21
2018-06-22T10:50:28.371Z,16.39
2018-06-22T10:51:38.232Z,16.5
2018-06-22T10:52:48.533Z,16.4
2018-06-22T10:53:58.501Z,16.46
2018-06-22T10:55:08.478Z,16.47
2018-06-22T10:56:18.461Z,16.34
2018-06-22T10:57:28.440Z,16.43
2018-06-22T10:58:38.697Z,16.62
2018-06-22T10:59:49.164Z,16.76
2018-06-22T11:00:59.098Z,16.68
2018-06-22T11:02:09.094Z,17.02
2018-06-22T11:03:19.104Z,17.44
2018-06-22T11:04:29.092Z,17.49
2018-06-22T11:05:38.880Z,17.41
2018-06-22T11:06:49.035Z,17.71
2018-06-22T11:07:59.044Z,17.69
2018-06-22T11:09:09.054Z,17.82
2018-06-22T11:10:19.051Z,18.02
2018-06-22T11:11:28.797Z,17.88
2018-06-22T11:12:38.554Z,17.87
2018-06-22T11:13:48.562Z,18.09
2018-06-22T11:14:58.603Z,18.34
2018-06-22T11:16:08.349Z,18.51
2018-06-22T11:17:18.523Z,18.85
2018-06-22T11:18:29.000Z,19.48
2018-06-22T11:19:38.973Z,19.55
2018-06-22T11:20:48.964Z,19.42
2018-06-22T11:21:58.958Z,19.57
2018-06-22T11:23:08.941Z,19.44
2018-06-22T11:24:18.918Z,19.24
2018-06-22T11:25:28.930Z,19.16
2018-06-22T11:26:38.944Z,18.66
2018-06-22T11:27:48.424Z,18.34
2018-06-22T11:28:58.396Z,18.26
2018-06-22T11:30:08.377Z,17.97
2018-06-22T11:31:18.091Z,17.78
2018-06-22T11:32:28.258Z,17.1
2018-06-22T11:33:38.256Z,16
2018-06-22T11:34:47.979Z,14.77
2018-06-22T11:35:58.185Z,13.97
2018-06-22T11:37:08.219Z,13.45
2018-06-22T11:38:18.223Z,13.01
2018-06-22T11:39:28.187Z,12.53
2018-06-22T11:40:37.883Z,12.28
2018-06-22T11:41:47.872Z,11.96
2018-06-22T11:42:57.884Z,11.81
2018-06-22T11:44:07.879Z,11.71
2018-06-22T11:45:17.851Z,11.65
2018-06-22T11:46:27.565Z,11.55
2018-06-22T11:47:37.807Z,11.49
2018-06-22T11:48:48.053Z,11.51
2018-06-22T11:49:57.819Z,11.51
2018-06-22T11:51:07.941Z,11.55
2018-06-22T11:52:18.119Z,11.59
2018-06-22T11:53:27.617Z,11.58
2018-06-22T11:54:37.595Z,11.63
2018-06-22T11:55:47.568Z,11.68
2018-06-22T11:56:57.542Z,11.67
2018-06-22T11:58:07.288Z,11.68
2018-06-22T11:59:17.443Z,11.7
2018-06-22T12:00:27.420Z,11.71
2018-06-22T12:01:37.701Z,11.78
2018-06-22T12:02:47.927Z,11.73
2018-06-22T12:03:57.897Z,11.83
2018-06-22T12:05:07.891Z,11.76
2018-06-22T12:06:17.858Z,11.96
2018-06-22T12:07:27.570Z,12.08
2018-06-22T12:08:37.554Z,12.3
2018-06-22T12:09:47.528Z,12.51
2018-06-22T12:10:57.766Z,12.93
2018-06-22T12:12:07.750Z,13.26
2018-06-22T12:13:17.468Z,13.57
2018-06-22T12:14:27.451Z,13.87
2018-06-22T12:15:37.454Z,14.2
2018-06-22T12:16:47.437Z,14.33
2018-06-22T12:17:57.417Z,14.53
2018-06-22T12:19:07.626Z,14.85
2018-06-22T12:20:17.997Z,15.07
2018-06-22T12:21:27.709Z,15.23
2018-06-22T12:22:37.681Z,15.18
2018-06-22T12:23:47.405Z,15.48
2018-06-22T12:24:57.112Z,15.75
2018-06-22T12:26:07.112Z,16.05
2018-06-22T12:27:17.096Z,16.34
2018-06-22T12:28:26.829Z,16.62
2018-06-22T12:29:36.807Z,16.83
2018-06-22T12:30:46.792Z,17.3
2018-06-22T12:31:56.759Z,17.37
2018-06-22T12:33:06.871Z,17.38
2018-06-22T12:34:17.041Z,17.24
2018-06-22T12:35:27.025Z,17.32
2018-06-22T12:36:36.497Z,17.39
2018-06-22T12:37:46.220Z,17.35
2018-06-22T12:38:56.219Z,17.5
2018-06-22T12:40:06.218Z,17.68
2018-06-22T12:41:16.232Z,18
2018-06-22T12:42:26.210Z,17.97
2018-06-22T12:43:35.938Z,17.9
2018-06-22T12:44:45.915Z,17.75
2018-06-22T12:45:55.907Z,17.88
2018-06-22T12:47:05.909Z,18.03
2018-06-22T12:48:15.926Z,17.95
2018-06-22T12:49:25.663Z,18.08
2018-06-22T12:50:35.788Z,18.09
2018-06-22T12:51:45.568Z,18.21
2018-06-22T12:52:55.552Z,18.26
2018-06-22T12:54:05.554Z,18.12
2018-06-22T12:55:15.534Z,18.21
2018-06-22T12:56:25.512Z,18.36
2018-06-22T12:57:35.411Z,18.66
2018-06-22T12:58:45.478Z,18.76
2018-06-22T12:59:55.454Z,18.57
2018-06-22T13:01:05.675Z,18.66
2018-06-22T13:02:15.687Z,18.74
2018-06-22T13:03:25.668Z,19.05
2018-06-22T13:04:35.420Z,18.92
2018-06-22T13:05:45.426Z,19.11
2018-06-22T13:06:55.410Z,18.89
2018-06-22T13:08:05.412Z,18.89
2018-06-22T13:09:15.297Z,18.68
2018-06-22T13:10:25.252Z,18.52
2018-06-22T13:11:35.276Z,18.33
2018-06-22T13:12:45.264Z,17.95
2018-06-22T13:13:55.244Z,18.02
2018-06-22T13:15:04.959Z,18.09
2018-06-22T13:16:14.422Z,18.24
2018-06-22T13:17:24.153Z,18.43
2018-06-22T13:18:34.123Z,18.7
2018-06-22T13:19:44.103Z,18.94
2018-06-22T13:20:54.094Z,19.27
2018-06-22T13:22:03.811Z,19.57
2018-06-22T13:23:13.952Z,19.81
2018-06-22T13:24:23.936Z,19.99
2018-06-22T13:25:33.700Z,20.22
2018-06-22T13:26:43.686Z,20.34
2018-06-22T13:27:53.404Z,20.53
2018-06-22T13:29:03.132Z,20.5
2018-06-22T13:30:13.124Z,20.1
2018-06-22T13:31:22.860Z,20.08
2018-06-22T13:32:32.834Z,20
2018-06-22T13:33:42.804Z,19.87
2018-06-22T13:34:52.274Z,20
2018-06-22T13:36:02.256Z,20.02
2018-06-22T13:37:12.246Z,20.1
2018-06-22T13:38:22.221Z,20.22
2018-06-22T13:39:32.045Z,20.22
2018-06-22T13:40:41.756Z,20.15
2018-06-22T13:41:51.509Z,20.12
2018-06-22T13:43:01.516Z,20.1
2018-06-22T13:44:10.982Z,20.11
2018-06-22T13:45:20.728Z,20.12
2018-06-22T13:46:30.705Z,19.85
2018-06-22T13:47:40.423Z,19.52
2018-06-22T13:48:50.407Z,19.19
2018-06-22T13:50:00.447Z,19.27
2018-06-22T13:51:10.241Z,19.38
2018-06-22T13:52:19.953Z,19.32
2018-06-22T13:53:29.930Z,19.34
2018-06-22T13:54:39.669Z,19.45
2018-06-22T13:55:49.695Z,19.48
2018-06-22T13:57:00.019Z,19.26
2018-06-22T13:58:10.478Z,19.23
2018-06-22T13:59:20.467Z,19.37
2018-06-22T14:00:30.444Z,19.41
2018-06-22T14:01:40.624Z,19.45
2018-06-22T14:02:50.596Z,19.62
2018-06-22T14:04:00.644Z,19.74
2018-06-22T14:05:10.428Z,19.92
2018-06-22T14:06:20.413Z,20.04
2018-06-22T14:07:30.408Z,20.11
2018-06-22T14:08:40.399Z,20.22
2018-06-22T14:09:50.380Z,20.22
2018-06-22T14:10:59.583Z,20.1
2018-06-22T14:12:09.575Z,20.12
2018-06-22T14:13:19.299Z,19.92
2018-06-22T14:14:29.282Z,19.72
2018-06-22T14:15:39.256Z,19.55
2018-06-22T14:16:49.246Z,19.45
2018-06-22T14:17:58.992Z,19.57
2018-06-22T14:19:08.712Z,19.64
2018-06-22T14:20:18.697Z,19.56
2018-06-22T14:21:28.514Z,19.42
2018-06-22T14:22:38.537Z,19.19
2018-06-22T14:23:48.575Z,19.01
2018-06-22T14:24:58.621Z,19.07
2018-06-22T14:26:08.373Z,19.07
2018-06-22T14:27:18.417Z,19.09
2018-06-22T14:28:28.446Z,19.11
2018-06-22T14:29:38.510Z,19.07
2018-06-22T14:30:48.600Z,19.08
2018-06-22T14:31:58.684Z,18.91
2018-06-22T14:33:08.656Z,18.98
2018-06-22T14:34:18.643Z,18.94
2018-06-22T14:35:28.671Z,18.89
2018-06-22T14:36:38.858Z,18.66
2018-06-22T14:37:49.097Z,18.45
2018-06-22T14:38:59.060Z,18.45
2018-06-22T14:40:08.779Z,18.09
2018-06-22T14:41:18.238Z,17.82
2018-06-22T14:42:28.444Z,17.66
2018-06-22T14:43:38.440Z,17.46
2018-06-22T14:44:48.165Z,17.32
2018-06-22T14:45:58.152Z,17.28
2018-06-22T14:47:08.147Z,17.24
2018-06-22T14:48:18.133Z,17.19
2018-06-22T14:49:28.114Z,17.13
2018-06-22T14:50:38.094Z,17.19
2018-06-22T14:51:48.088Z,17.16
2018-06-22T14:52:57.824Z,17.19
2018-06-22T14:54:07.796Z,17.23
2018-06-22T14:55:17.628Z,17.32
2018-06-22T14:56:27.621Z,17.31
2018-06-22T14:57:37.496Z,17.39
2018-06-22T14:58:47.631Z,17.52
2018-06-22T14:59:57.616Z,17.66
2018-06-22T15:01:07.694Z,17.63
2018-06-22T15:02:17.657Z,17.78
2018-06-22T15:03:27.394Z,17.78
2018-06-22T15:04:37.429Z,17.88